KP69

Lowell Airport

Idaho, USA
METAR KP69 231352Z AUTO 00000KT 11/11 A2985 RMK AO1 SLP102 T01110111
Observed Flight Rules
May-23 @ 13:52 UTC (an hour ago)
Temperatures Readings
Current 11°C / 52°F
Dewpoint 11°C / 52°F
Humidity 100%
Altimeter 29.85" Hg
Pressure 1010.2 hPa
Elevation 480
METAR KP69 231352Z AUTO 00000KT 11/11 A2985 RMK AO1 SLP102 T01110111
Observed Flight Rules
May-23 @ 13:52 UTC
(an hour ago)
Temperature Dewpoint
11°C / 52°F 11°C / 52°F
Humidity Altimeter Pressure
100% 29.85" Hg 1010.2 hPa